Maria Olga — SVAS3 — position and weather

sailwx.info

Track history (hours):
 
Tides and Currents Weather Stations Pressure Air Temp Water Temp Dewpoint Dewpoint Depression Visibility Wind Speed Wind Dir Waves Ship Positions

Maria Olga

Last reported at 2017-Sep-21 15:43 UTC. Time now 2017-Sep-21 16:21 UTC.
Position N 37°54' E 023°06'.

Length 87 m.

Type: Tanker. MMSI: 240920000.

Date/timePositionNaut miles runAvg speedWind from/ knotsBaromVisibWave heightAir tempDewpointWater temp
2017-Sep-21 15:43N 37°54' E 023°06'0 0.1
2017-Sep-21 15:23N 37°54' E 023°06'0 0.0
2017-Sep-21 15:00N 37°54' E 023°06'0 0.0
2017-Sep-21 14:20N 37°54' E 023°06'0 0.0
2017-Sep-21 13:44N 37°54' E 023°06'0 0.0
2017-Sep-21 13:26N 37°54' E 023°06'0 0.0
2017-Sep-21 13:00N 37°54' E 023°06'0 0.0
2017-Sep-21 12:28N 37°54' E 023°06'0 0.0
2017-Sep-21 11:40N 37°54' E 023°06'0 0.0
2017-Sep-21 11:20N 37°54' E 023°06'0 0.0
2017-Sep-21 10:52N 37°54' E 023°06'0 0.0
2017-Sep-21 10:25N 37°54' E 023°06'7 5.5
2017-Sep-21 09:07N 37°54' E 023°15'1 6.9
2017-Sep-21 09:00N 37°53' E 023°16'3 6.8
2017-Sep-21 08:30N 37°53' E 023°20'3 6.5
2017-Sep-21 08:00N 37°52' E 023°24'3 6.6
2017-Sep-21 07:30N 37°52' E 023°28'3 6.6
2017-Sep-21 07:00N 37°54' E 023°32'2 3.7
2017-Sep-21 06:30N 37°55' E 023°33'0 0.0
2017-Sep-21 06:00N 37°55' E 023°33'0 0.1
2017-Sep-21 05:31N 37°55' E 023°33'0 0.0
2017-Sep-21 05:00N 37°55' E 023°33'0 0.0
2017-Sep-21 04:30N 37°55' E 023°33'0 0.0
2017-Sep-21 04:00N 37°55' E 023°33'0 0.0
2017-Sep-21 03:31N 37°55' E 023°33'0 0.0
2017-Sep-21 03:00N 37°55' E 023°33'0 0.0
2017-Sep-21 02:30N 37°55' E 023°33'0 0.0
2017-Sep-21 02:00N 37°55' E 023°33'0 0.0
2017-Sep-21 01:31N 37°55' E 023°33'0 0.0
2017-Sep-21 01:00N 37°55' E 023°33'0 0.0
2017-Sep-21 00:30N 37°55' E 023°33'0 0.0
2017-Sep-21 00:01N 37°55' E 023°33'0 0.0
2017-Sep-20 23:30N 37°55' E 023°33'0 0.0
2017-Sep-20 23:01N 37°55' E 023°33'0 0.0
2017-Sep-20 22:30N 37°55' E 023°33'0 0.1
2017-Sep-20 22:00N 37°55' E 023°33'0 0.0
2017-Sep-20 21:30N 37°55' E 023°33'0 0.0
2017-Sep-20 21:00N 37°55' E 023°33'0 0.0
2017-Sep-20 20:30N 37°55' E 023°33'0 0.0
2017-Sep-20 20:00N 37°55' E 023°33'0 0.0
2017-Sep-20 19:31N 37°55' E 023°33'0 0.0
2017-Sep-20 19:00N 37°55' E 023°33'0 0.0
2017-Sep-20 18:31N 37°55' E 023°33'0 0.0
2017-Sep-20 18:01N 37°55' E 023°33'0 0.0
2017-Sep-20 17:31N 37°55' E 023°33'0 0.0
2017-Sep-20 17:00N 37°55' E 023°33'0 0.0
2017-Sep-20 16:30N 37°55' E 023°33'0 0.0
2017-Sep-20 16:00N 37°55' E 023°33'0 0.0
2017-Sep-20 15:31N 37°55' E 023°33'0 0.2
2017-Sep-20 15:01N 37°56' E 023°33'0 0.0
2017-Sep-20 14:00N 37°56' E 023°33'0 0.0
2017-Sep-20 13:30N 37°56' E 023°33'0 0.0
2017-Sep-20 13:00N 37°56' E 023°33'0 0.0
2017-Sep-20 12:30N 37°56' E 023°33'0 0.1
2017-Sep-20 12:00N 37°56' E 023°33'0 0.1
2017-Sep-20 11:30N 37°55' E 023°33'0 0.0
2017-Sep-20 11:00N 37°55' E 023°33'0 0.0
2017-Sep-20 10:30N 37°55' E 023°33'0 0.0
2017-Sep-20 10:00N 37°55' E 023°33'0 0.0
2017-Sep-20 09:30N 37°55' E 023°33'0 0.0
2017-Sep-20 09:00N 37°55' E 023°33'0 0.0
2017-Sep-20 08:30N 37°55' E 023°33'0 0.0
2017-Sep-20 08:00N 37°55' E 023°33'0 0.0
2017-Sep-20 07:30N 37°55' E 023°33'0 0.0
2017-Sep-20 07:00N 37°55' E 023°33'0 0.0
2017-Sep-20 06:30N 37°55' E 023°33'0 0.0
2017-Sep-20 06:00N 37°55' E 023°33'0 0.0
2017-Sep-20 05:30N 37°55' E 023°33'0 0.0
2017-Sep-20 05:00N 37°55' E 023°33'0 0.0
2017-Sep-20 04:30N 37°55' E 023°33'0 0.0
2017-Sep-20 04:00N 37°55' E 023°33'0 0.0
2017-Sep-20 03:30N 37°55' E 023°33'0 0.0
2017-Sep-20 03:00N 37°55' E 023°33'0 0.0
2017-Sep-20 02:30N 37°55' E 023°33'0 0.0
2017-Sep-20 02:00N 37°55' E 023°33'0 0.1
2017-Sep-20 01:30N 37°55' E 023°33'0 0.0
2017-Sep-20 01:00N 37°55' E 023°33'0 0.0
2017-Sep-20 00:31N 37°55' E 023°33'0 0.0
2017-Sep-20 00:00N 37°55' E 023°33'0 0.1
2017-Sep-19 23:30N 37°55' E 023°33'0 0.1
2017-Sep-19 23:00N 37°56' E 023°33'0 0.0
2017-Sep-19 22:30N 37°56' E 023°33'0 0.1
2017-Sep-19 22:00N 37°56' E 023°33'0 0.0
2017-Sep-19 21:30N 37°56' E 023°33'0 0.0
2017-Sep-19 21:01N 37°56' E 023°33'0 0.1
2017-Sep-19 20:30N 37°56' E 023°33'0 0.0
2017-Sep-19 20:00N 37°56' E 023°33'0 0.0
2017-Sep-19 19:30N 37°56' E 023°33'0 0.0
2017-Sep-19 19:00N 37°56' E 023°33'0 0.0
2017-Sep-19 18:30N 37°56' E 023°33'0 0.1
2017-Sep-19 18:00N 37°56' E 023°33'0 0.1
2017-Sep-19 17:30N 37°56' E 023°33'0 0.0
2017-Sep-19 17:00N 37°56' E 023°33'0 0.0
2017-Sep-19 16:30N 37°56' E 023°33'0 0.0
2017-Sep-19 16:00N 37°56' E 023°33'0 0.0
2017-Sep-19 15:30N 37°56' E 023°33'0 0.0
2017-Sep-19 15:00N 37°56' E 023°33'0 0.0
2017-Sep-19 14:30N 37°56' E 023°33'0 0.0
2017-Sep-19 14:00N 37°56' E 023°33'0 0.0
2017-Sep-19 13:30N 37°56' E 023°33'0 0.0
2017-Sep-19 13:00N 37°56' E 023°33'0 0.0
2017-Sep-19 12:30N 37°56' E 023°33'0 0.0
2017-Sep-19 12:00N 37°56' E 023°33'0 0.0
2017-Sep-19 11:30N 37°56' E 023°33'0 0.0
2017-Sep-19 11:00N 37°56' E 023°33'0 0.1
2017-Sep-19 10:30N 37°55' E 023°33'0 0.1
2017-Sep-19 10:00N 37°56' E 023°33'0 0.1
2017-Sep-19 09:30N 37°56' E 023°33'0 0.0
2017-Sep-19 09:00N 37°56' E 023°33'0 0.0
2017-Sep-19 08:30N 37°56' E 023°33'0 0.1
2017-Sep-19 08:00N 37°55' E 023°33'0 0.1
2017-Sep-19 07:30N 37°55' E 023°33'0 0.0
2017-Sep-19 07:00N 37°55' E 023°33'0 0.1
2017-Sep-19 06:31N 37°56' E 023°33'0 0.1
2017-Sep-19 06:01N 37°55' E 023°33'0 0.0
2017-Sep-19 05:30N 37°55' E 023°33'0 0.0
2017-Sep-19 05:00N 37°55' E 023°33'0 0.0
2017-Sep-19 04:30N 37°55' E 023°33'0 0.1
2017-Sep-19 04:00N 37°55' E 023°33'0 0.1
2017-Sep-19 03:30N 37°55' E 023°33'0 0.0
2017-Sep-19 03:00N 37°55' E 023°33'0 0.0
2017-Sep-19 02:30N 37°55' E 023°33'0 0.0
2017-Sep-19 02:00N 37°55' E 023°33'0 0.0
2017-Sep-19 01:30N 37°55' E 023°33'0 0.0
2017-Sep-19 01:00N 37°55' E 023°33'0 0.0
2017-Sep-19 00:30N 37°55' E 023°33'0 0.0
2017-Sep-19 00:00N 37°55' E 023°33'0 0.0
2017-Sep-18 23:30N 37°55' E 023°33'0 0.0
2017-Sep-18 23:00N 37°55' E 023°33'0 0.0
2017-Sep-18 22:30N 37°55' E 023°33'0 0.1
2017-Sep-18 22:00N 37°55' E 023°33'0 0.0
2017-Sep-18 21:30N 37°55' E 023°33'0 0.0
2017-Sep-18 21:00N 37°55' E 023°33'0 0.0
2017-Sep-18 20:30N 37°55' E 023°33'0 0.0
2017-Sep-18 20:00N 37°55' E 023°33'0 0.1
2017-Sep-18 19:30N 37°55' E 023°33'0 0.3
2017-Sep-18 19:00N 37°56' E 023°33'0 0.0
2017-Sep-18 18:30N 37°56' E 023°33'0 0.0
2017-Sep-18 18:00N 37°56' E 023°33'0 0.0
2017-Sep-18 17:30N 37°56' E 023°33'0 0.0
2017-Sep-18 17:00N 37°56' E 023°33'0 0.0
2017-Sep-18 16:30N 37°56' E 023°33'0 0.0
2017-Sep-18 16:00N 37°56' E 023°33'0 0.0
2017-Sep-18 15:30N 37°56' E 023°33'0 0.0
2017-Sep-18 15:00N 37°56' E 023°33'0 0.0
2017-Sep-18 14:30N 37°56' E 023°33'0 0.0
2017-Sep-18 14:00N 37°56' E 023°33'0 0.0
2017-Sep-18 13:30N 37°56' E 023°33'0 0.0
2017-Sep-18 13:00N 37°56' E 023°33'0 0.0
2017-Sep-18 12:30N 37°56' E 023°33'2 3.8
2017-Sep-18 12:00N 37°57' E 023°35'0 1.0
2017-Sep-18 11:30N 37°57' E 023°35'0 0.0
2017-Sep-18 11:00N 37°57' E 023°35'0 0.0
2017-Sep-18 10:30N 37°57' E 023°35'0 0.0
2017-Sep-18 10:00N 37°57' E 023°35'0 0.0
2017-Sep-18 09:30N 37°57' E 023°35'0 0.0
2017-Sep-18 09:00N 37°57' E 023°35'0 0.0
2017-Sep-18 08:30N 37°57' E 023°35'0 0.0
2017-Sep-18 08:00N 37°57' E 023°35'0 0.0
2017-Sep-18 07:31N 37°57' E 023°35'0 0.0
2017-Sep-18 07:00N 37°57' E 023°35'0 0.0
2017-Sep-18 06:31N 37°57' E 023°35'0 0.2
2017-Sep-18 06:00N 37°57' E 023°35'2 4.3
2017-Sep-18 05:30N 37°56' E 023°34'0 0.9
2017-Sep-18 05:00N 37°55' E 023°33'0 0.0
2017-Sep-18 04:30N 37°55' E 023°33'0 0.1
2017-Sep-18 04:00N 37°55' E 023°33'0 0.0
2017-Sep-18 03:30N 37°55' E 023°33'0 0.0
2017-Sep-18 03:00N 37°55' E 023°33'0 0.0
2017-Sep-18 02:30N 37°55' E 023°33'0 0.0
2017-Sep-18 02:00N 37°55' E 023°33'0 0.0
2017-Sep-18 01:30N 37°55' E 023°33'0 0.0
2017-Sep-18 01:00N 37°55' E 023°33'0 0.0
2017-Sep-18 00:30N 37°55' E 023°33'0 0.0
2017-Sep-18 00:00N 37°55' E 023°33'0 0.0
2017-Sep-17 23:30N 37°55' E 023°33'0 0.1
2017-Sep-17 23:00N 37°55' E 023°33'0 0.0
2017-Sep-17 22:30N 37°55' E 023°33'0 0.0
2017-Sep-17 22:00N 37°55' E 023°33'0 0.0
2017-Sep-17 21:30N 37°55' E 023°33'0 0.1
2017-Sep-17 21:00N 37°55' E 023°33'0 0.0
2017-Sep-17 20:30N 37°55' E 023°33'0 0.0
2017-Sep-17 20:00N 37°55' E 023°33'0 0.1
2017-Sep-17 19:30N 37°55' E 023°33'0 0.1
2017-Sep-17 19:00N 37°55' E 023°33'0 0.0
2017-Sep-17 18:30N 37°55' E 023°33'0 0.0
2017-Sep-17 18:00N 37°55' E 023°33'0 0.0
2017-Sep-17 17:31N 37°55' E 023°33'0 0.0
2017-Sep-17 17:00N 37°55' E 023°33'0 0.0
2017-Sep-17 16:30N 37°55' E 023°33'0 0.0
2017-Sep-17 16:00N 37°55' E 023°33'0 0.0
2017-Sep-17 15:30N 37°55' E 023°33'0 0.0
2017-Sep-17 15:00N 37°55' E 023°33'0 0.0
2017-Sep-17 14:30N 37°55' E 023°33'0 0.0
2017-Sep-17 14:00N 37°55' E 023°33'0 0.0
2017-Sep-17 13:31N 37°55' E 023°33'0 0.0
2017-Sep-17 13:00N 37°55' E 023°33'0 0.0
2017-Sep-17 12:30N 37°55' E 023°33'0 0.0
2017-Sep-17 12:00N 37°55' E 023°33'0 0.0
2017-Sep-17 11:30N 37°55' E 023°33'0 0.0
2017-Sep-17 11:00N 37°55' E 023°33'0 0.0
2017-Sep-17 10:30N 37°55' E 023°33'0 0.0
2017-Sep-17 10:00N 37°55' E 023°33'0 0.0
2017-Sep-17 09:30N 37°55' E 023°33'0 0.0
2017-Sep-17 09:00N 37°55' E 023°33'0 0.0
2017-Sep-17 08:30N 37°55' E 023°33'0 0.0
2017-Sep-17 08:00N 37°55' E 023°33'0 0.0
2017-Sep-17 07:30N 37°55' E 023°33'0 0.0
2017-Sep-17 07:00N 37°55' E 023°33'0 0.1
2017-Sep-17 06:30N 37°55' E 023°33'0 0.0
2017-Sep-17 06:00N 37°55' E 023°33'0 0.0
2017-Sep-17 05:30N 37°55' E 023°33'0 0.0
2017-Sep-17 05:00N 37°55' E 023°33'0 0.0
2017-Sep-17 04:30N 37°55' E 023°33'0 0.0
2017-Sep-17 04:00N 37°55' E 023°33'0 0.0
2017-Sep-17 03:30N 37°55' E 023°33'0 0.0
2017-Sep-17 03:00N 37°55' E 023°33'0 0.0
2017-Sep-17 02:30N 37°55' E 023°33'0 0.0
2017-Sep-17 02:00N 37°55' E 023°33'0 0.0
2017-Sep-17 01:30N 37°55' E 023°33'0 0.0
2017-Sep-17 01:00N 37°55' E 023°33'0 0.0
2017-Sep-17 00:31N 37°55' E 023°33'0 0.0
2017-Sep-17 00:00N 37°55' E 023°33'0 0.0
2017-Sep-16 23:30N 37°55' E 023°33'0 0.0
2017-Sep-16 23:00N 37°55' E 023°33'0 0.0
2017-Sep-16 22:30N 37°55' E 023°33'0 0.0
2017-Sep-16 22:00N 37°55' E 023°33'0 0.1
2017-Sep-16 21:30N 37°55' E 023°33'0 0.0
2017-Sep-16 21:00N 37°55' E 023°33'0 0.1
2017-Sep-16 20:30N 37°55' E 023°33'0 0.0
2017-Sep-16 20:00N 37°55' E 023°33'0 0.0
2017-Sep-16 19:30N 37°55' E 023°33'0 0.0
2017-Sep-16 19:00N 37°55' E 023°33'0 0.0
2017-Sep-16 18:30N 37°55' E 023°33'0 0.1
2017-Sep-16 18:00N 37°55' E 023°33'3 6.3
2017-Sep-16 17:30N 37°53' E 023°31'2 3.0
2017-Sep-16 17:00N 37°51' E 023°30'0 0.0
2017-Sep-16 16:30N 37°51' E 023°30'0 0.0
2017-Sep-16 16:00N 37°51' E 023°30'0 0.2
2017-Sep-16 15:30N 37°51' E 023°30'0 0.1
2017-Sep-16 15:00N 37°51' E 023°30'1 1.6
2017-Sep-16 14:30N 37°52' E 023°29'4 7.3
2017-Sep-16 14:00N 37°52' E 023°25'4 7.8
2017-Sep-16 13:30N 37°53' E 023°20'4 7.8
2017-Sep-16 12:58N 37°53' E 023°15'3 7.5
2017-Sep-16 12:30N 37°54' E 023°10'3 0.2
2017-Sep-15 18:36N 37°55' E 023°06'0 0.0
2017-Sep-15 17:31N 37°55' E 023°06'0 0.1
2017-Sep-15 17:29N 37°55' E 023°06'0 0.0
2017-Sep-15 14:27N 37°55' E 023°06'3 0.3
2017-Sep-15 06:24N 37°54' E 023°10'3 7.0
2017-Sep-15 05:58N 37°54' E 023°13'3 6.7
2017-Sep-15 05:30N 37°53' E 023°17'3 7.0
2017-Sep-15 05:00N 37°53' E 023°22'4 7.4
2017-Sep-15 04:30N 37°52' E 023°26'4 7.1
2017-Sep-15 04:00N 37°53' E 023°30'3 6.9
2017-Sep-15 03:30N 37°56' E 023°33'0 0.3
2017-Sep-15 03:00N 37°56' E 023°34'0 0.0
2017-Sep-15 02:30N 37°56' E 023°34'0 0.0
2017-Sep-15 02:00N 37°56' E 023°34'0 0.0
2017-Sep-15 01:30N 37°56' E 023°34'0 0.0
2017-Sep-15 01:01N 37°56' E 023°34'0 0.0
2017-Sep-15 00:30N 37°56' E 023°34'0 0.0
2017-Sep-15 00:00N 37°56' E 023°34'0 0.0
2017-Sep-14 23:30N 37°56' E 023°34'0 0.0
2017-Sep-14 23:00N 37°56' E 023°34'0 0.0
2017-Sep-14 22:30N 37°56' E 023°34'0 0.0
2017-Sep-14 22:00N 37°56' E 023°34'0 0.0
2017-Sep-14 21:30N 37°56' E 023°34'0 0.0
2017-Sep-14 21:00N 37°56' E 023°34'0 0.0
2017-Sep-14 20:30N 37°56' E 023°34'0 0.0
2017-Sep-14 20:00N 37°56' E 023°34'0 0.0
2017-Sep-14 19:31N 37°56' E 023°34'0 0.0
2017-Sep-14 19:01N 37°56' E 023°34'0 0.1
2017-Sep-14 18:30N 37°56' E 023°34'0 0.1
2017-Sep-14 18:00N 37°56' E 023°34'0 0.0
2017-Sep-14 17:30N 37°56' E 023°34'0 0.0
2017-Sep-14 17:00N 37°56' E 023°34'0 0.0
2017-Sep-14 16:30N 37°56' E 023°34'0 0.0
2017-Sep-14 16:00N 37°56' E 023°34'0 0.0
2017-Sep-14 15:30N 37°56' E 023°34'0 0.1
2017-Sep-14 15:00N 37°56' E 023°34'0 0.1
2017-Sep-14 14:30N 37°56' E 023°34'0 0.0
2017-Sep-14 14:00N 37°56' E 023°34'0 0.0
2017-Sep-14 13:30N 37°56' E 023°34'0 0.0
2017-Sep-14 13:00N 37°56' E 023°34'0 0.0
2017-Sep-14 12:30N 37°56' E 023°34'0 0.1
2017-Sep-14 12:00N 37°56' E 023°34'0 0.0
2017-Sep-14 11:30N 37°56' E 023°34'0 0.0
2017-Sep-14 11:01N 37°56' E 023°34'0 0.0
2017-Sep-14 10:30N 37°56' E 023°34'0 0.0
2017-Sep-14 10:00N 37°56' E 023°34'0 0.0
2017-Sep-14 09:30N 37°56' E 023°34'0 0.0
2017-Sep-14 09:01N 37°56' E 023°34'0 0.0
2017-Sep-14 08:30N 37°56' E 023°34'0 0.0
2017-Sep-14 08:00N 37°56' E 023°34'0 0.0
2017-Sep-14 07:31N 37°56' E 023°34'0 0.0
2017-Sep-14 07:00N 37°56' E 023°34'0 0.0
2017-Sep-14 06:30N 37°56' E 023°34'0 0.0
2017-Sep-14 06:00N 37°56' E 023°34'0 0.0
2017-Sep-14 05:30N 37°56' E 023°34'0 0.0
2017-Sep-14 05:00N 37°56' E 023°34'0 0.0
2017-Sep-14 04:31N 37°56' E 023°34'0 0.0
2017-Sep-14 04:00N 37°56' E 023°34'0 0.0
2017-Sep-14 03:31N 37°56' E 023°34'0 0.0
2017-Sep-14 03:01N 37°56' E 023°34'0 0.0
2017-Sep-14 02:30N 37°56' E 023°34'0 0.0
2017-Sep-14 02:00N 37°56' E 023°34'0 0.0
2017-Sep-14 01:31N 37°56' E 023°34'0 0.0
2017-Sep-14 01:00N 37°56' E 023°34'0 0.0
2017-Sep-14 00:30N 37°56' E 023°34'0 0.0
2017-Sep-14 00:00N 37°56' E 023°34'0 0.0
2017-Sep-13 23:30N 37°56' E 023°34'0 0.0
2017-Sep-13 23:00N 37°56' E 023°34'0 0.0
2017-Sep-13 22:30N 37°56' E 023°34'0 0.0
2017-Sep-13 22:00N 37°56' E 023°34'0 0.0
2017-Sep-13 21:30N 37°56' E 023°34'0 0.2
2017-Sep-13 21:00N 37°56' E 023°34'0 0.0
2017-Sep-13 20:30N 37°56' E 023°34'0 0.1
2017-Sep-13 20:00N 37°56' E 023°34'0 0.0
2017-Sep-13 19:30N 37°56' E 023°34'0 0.0
2017-Sep-13 19:00N 37°56' E 023°34'0 0.0
2017-Sep-13 18:30N 37°56' E 023°34'0 0.2
2017-Sep-13 18:00N 37°56' E 023°34'0 0.0
2017-Sep-13 17:30N 37°56' E 023°34'0 0.1
2017-Sep-13 17:00N 37°56' E 023°34'0 0.0
2017-Sep-13 16:30N 37°56' E 023°34'0 0.0
2017-Sep-13 15:59N 37°56' E 023°34'0 0.0
2017-Sep-13 15:30N 37°56' E 023°34'0 0.0
2017-Sep-13 15:01N 37°56' E 023°34'0 0.0
2017-Sep-13 14:30N 37°56' E 023°34'0 0.1
2017-Sep-13 14:01N 37°56' E 023°34'0 0.1
2017-Sep-13 13:30N 37°56' E 023°34'0 0.0
2017-Sep-13 13:00N 37°56' E 023°34'0 0.0
2017-Sep-13 12:31N 37°56' E 023°34'0 0.1
2017-Sep-13 12:00N 37°56' E 023°34'0 0.0
2017-Sep-13 11:30N 37°56' E 023°34'0 0.0
2017-Sep-13 11:01N 37°56' E 023°34'0 0.0
2017-Sep-13 10:31N 37°56' E 023°34'0 0.0
2017-Sep-13 10:00N 37°56' E 023°34'0 0.0
2017-Sep-13 09:30N 37°56' E 023°34'0 0.1
2017-Sep-13 08:59N 37°56' E 023°34'0 0.0
2017-Sep-13 08:30N 37°56' E 023°34'0 0.0
2017-Sep-13 08:00N 37°56' E 023°34'0 0.0
2017-Sep-13 07:30N 37°56' E 023°34'0 0.0
2017-Sep-13 07:00N 37°56' E 023°34'0 0.0
2017-Sep-13 06:30N 37°56' E 023°34'0 0.0
2017-Sep-13 06:00N 37°56' E 023°34'0 0.0
2017-Sep-13 05:30N 37°56' E 023°34'0 0.0
2017-Sep-13 05:01N 37°56' E 023°34'0 0.0
2017-Sep-13 04:31N 37°56' E 023°34'0 0.1
2017-Sep-13 04:01N 37°56' E 023°34'0 0.0
2017-Sep-13 03:30N 37°56' E 023°34'0 0.0
2017-Sep-13 03:00N 37°56' E 023°34'0 0.1
2017-Sep-13 02:30N 37°56' E 023°34'0 0.0
2017-Sep-13 02:00N 37°56' E 023°34'0 0.0
2017-Sep-13 01:30N 37°56' E 023°34'0 0.0
2017-Sep-13 01:00N 37°56' E 023°34'0 0.0
2017-Sep-13 00:30N 37°56' E 023°34'0 0.1
2017-Sep-12 23:59N 37°56' E 023°34'0 0.0
2017-Sep-12 23:30N 37°56' E 023°34'0 0.0
2017-Sep-12 23:00N 37°56' E 023°34'0 0.0
2017-Sep-12 22:30N 37°56' E 023°34'0 0.0
2017-Sep-12 22:01N 37°56' E 023°34'0 0.0
2017-Sep-12 21:30N 37°56' E 023°34'0 0.0
2017-Sep-12 21:00N 37°56' E 023°34'0 0.0
2017-Sep-12 20:30N 37°56' E 023°34'0 0.0
2017-Sep-12 20:00N 37°56' E 023°34'0 0.0
2017-Sep-12 19:30N 37°56' E 023°34'0 0.0
2017-Sep-12 19:00N 37°56' E 023°34'0 0.0
2017-Sep-12 18:30N 37°56' E 023°34'0 0.0
2017-Sep-12 18:00N 37°56' E 023°34'0 0.2
2017-Sep-12 17:30N 37°56' E 023°34'0 0.0
2017-Sep-12 17:00N 37°56' E 023°34'0 0.0
2017-Sep-12 16:30N 37°56' E 023°34'0 0.0
2017-Sep-12 16:00N 37°56' E 023°34'0 0.0
2017-Sep-12 15:30N 37°56' E 023°34'0 0.0
2017-Sep-12 15:00N 37°56' E 023°34'0 0.0
2017-Sep-12 14:30N 37°56' E 023°34'0 0.0
2017-Sep-12 14:00N 37°56' E 023°34'0 0.0
2017-Sep-12 13:30N 37°56' E 023°34'0 0.0
2017-Sep-12 13:00N 37°56' E 023°34'0 0.0
2017-Sep-12 12:30N 37°56' E 023°34'0 0.0
2017-Sep-12 12:00N 37°56' E 023°34'0 0.0
2017-Sep-12 11:30N 37°56' E 023°34'0 0.0
2017-Sep-12 11:00N 37°56' E 023°34'0 0.0
2017-Sep-12 10:30N 37°56' E 023°34'0 0.1
2017-Sep-12 10:00N 37°56' E 023°34'0 0.0
2017-Sep-12 09:30N 37°56' E 023°34'0 0.0
2017-Sep-12 09:00N 37°56' E 023°34'0 0.0
2017-Sep-12 08:30N 37°56' E 023°34'0 0.0
2017-Sep-12 08:00N 37°56' E 023°34'0 0.0
2017-Sep-12 07:30N 37°56' E 023°34'0 0.0
2017-Sep-12 07:00N 37°56' E 023°34'0 0.0
2017-Sep-12 06:30N 37°56' E 023°34'0 0.0
2017-Sep-12 06:00N 37°56' E 023°34'0 0.0
2017-Sep-12 05:30N 37°56' E 023°34'0 0.0
2017-Sep-12 05:00N 37°56' E 023°34'0 0.0
2017-Sep-12 04:30N 37°56' E 023°34'0 0.0
2017-Sep-12 04:00N 37°56' E 023°34'0 0.0
2017-Sep-12 03:30N 37°56' E 023°34'0 0.0
2017-Sep-12 03:00N 37°56' E 023°34'0 0.0
2017-Sep-12 02:30N 37°56' E 023°34'0 0.0
2017-Sep-12 02:00N 37°56' E 023°34'0 0.0
2017-Sep-12 01:30N 37°56' E 023°34'0 0.0
2017-Sep-12 01:00N 37°56' E 023°34'0 0.0
2017-Sep-12 00:30N 37°56' E 023°34'0 0.0
2017-Sep-12 00:00N 37°56' E 023°34'0 0.0
2017-Sep-11 23:31N 37°56' E 023°34'0 0.1
2017-Sep-11 23:00N 37°56' E 023°34'0 0.0
2017-Sep-11 22:30N 37°56' E 023°34'0 0.1
2017-Sep-11 22:00N 37°56' E 023°34'0 0.0
2017-Sep-11 21:30N 37°56' E 023°34'0 0.0
2017-Sep-11 21:00N 37°56' E 023°34'0 0.0
2017-Sep-11 20:30N 37°56' E 023°33'0 0.0
2017-Sep-11 20:00N 37°56' E 023°34'0 0.0
2017-Sep-11 19:30N 37°56' E 023°34'0 0.1
2017-Sep-11 19:00N 37°56' E 023°33'0 0.0
2017-Sep-11 18:30N 37°56' E 023°33'0 0.0
2017-Sep-11 18:00N 37°56' E 023°33'0 0.0
2017-Sep-11 17:30N 37°56' E 023°33'0 0.0
2017-Sep-11 17:00N 37°56' E 023°33'0 0.0
2017-Sep-11 16:30N 37°56' E 023°33'0 0.0
2017-Sep-11 16:00N 37°56' E 023°33'  
Track history (hours):
 
Tides and Currents Weather Stations Pressure Air Temp Water Temp Dewpoint Dewpoint Depression Visibility Wind Speed Wind Dir Waves Ship Positions

Maria Olga

Last reported at 2017-Sep-21 15:43 UTC. Time now 2017-Sep-21 16:21 UTC.
Position N 37°54' E 023°06'.

Length 87 m.

Type: Tanker. MMSI: 240920000.

Date/timePositionNaut miles runAvg speedWind from/ knotsBaromVisibWave heightAir tempDewpointWater temp
2017-Sep-21 15:43N 37°54' E 023°06'0 0.1
2017-Sep-21 15:23N 37°54' E 023°06'0 0.0
2017-Sep-21 15:00N 37°54' E 023°06'0 0.0
2017-Sep-21 14:20N 37°54' E 023°06'0 0.0
2017-Sep-21 13:44N 37°54' E 023°06'0 0.0
2017-Sep-21 13:26N 37°54' E 023°06'0 0.0
2017-Sep-21 13:00N 37°54' E 023°06'0 0.0
2017-Sep-21 12:28N 37°54' E 023°06'0 0.0
2017-Sep-21 11:40N 37°54' E 023°06'0 0.0
2017-Sep-21 11:20N 37°54' E 023°06'0 0.0
2017-Sep-21 10:52N 37°54' E 023°06'0 0.0
2017-Sep-21 10:25N 37°54' E 023°06'7 5.5
2017-Sep-21 09:07N 37°54' E 023°15'1 6.9
2017-Sep-21 09:00N 37°53' E 023°16'3 6.8
2017-Sep-21 08:30N 37°53' E 023°20'3 6.5
2017-Sep-21 08:00N 37°52' E 023°24'3 6.6
2017-Sep-21 07:30N 37°52' E 023°28'3 6.6
2017-Sep-21 07:00N 37°54' E 023°32'2 3.7
2017-Sep-21 06:30N 37°55' E 023°33'0 0.0
2017-Sep-21 06:00N 37°55' E 023°33'0 0.1
2017-Sep-21 05:31N 37°55' E 023°33'0 0.0
2017-Sep-21 05:00N 37°55' E 023°33'0 0.0
2017-Sep-21 04:30N 37°55' E 023°33'0 0.0
2017-Sep-21 04:00N 37°55' E 023°33'0 0.0
2017-Sep-21 03:31N 37°55' E 023°33'0 0.0
2017-Sep-21 03:00N 37°55' E 023°33'0 0.0
2017-Sep-21 02:30N 37°55' E 023°33'0 0.0
2017-Sep-21 02:00N 37°55' E 023°33'0 0.0
2017-Sep-21 01:31N 37°55' E 023°33'0 0.0
2017-Sep-21 01:00N 37°55' E 023°33'0 0.0
2017-Sep-21 00:30N 37°55' E 023°33'0 0.0
2017-Sep-21 00:01N 37°55' E 023°33'0 0.0
2017-Sep-20 23:30N 37°55' E 023°33'0 0.0
2017-Sep-20 23:01N 37°55' E 023°33'0 0.0
2017-Sep-20 22:30N 37°55' E 023°33'0 0.1
2017-Sep-20 22:00N 37°55' E 023°33'0 0.0
2017-Sep-20 21:30N 37°55' E 023°33'0 0.0
2017-Sep-20 21:00N 37°55' E 023°33'0 0.0
2017-Sep-20 20:30N 37°55' E 023°33'0 0.0
2017-Sep-20 20:00N 37°55' E 023°33'0 0.0
2017-Sep-20 19:31N 37°55' E 023°33'0 0.0
2017-Sep-20 19:00N 37°55' E 023°33'0 0.0
2017-Sep-20 18:31N 37°55' E 023°33'0 0.0
2017-Sep-20 18:01N 37°55' E 023°33'0 0.0
2017-Sep-20 17:31N 37°55' E 023°33'0 0.0
2017-Sep-20 17:00N 37°55' E 023°33'0 0.0
2017-Sep-20 16:30N 37°55' E 023°33'0 0.0
2017-Sep-20 16:00N 37°55' E 023°33'0 0.0
2017-Sep-20 15:31N 37°55' E 023°33'0 0.2
2017-Sep-20 15:01N 37°56' E 023°33'0 0.0
2017-Sep-20 14:00N 37°56' E 023°33'0 0.0
2017-Sep-20 13:30N 37°56' E 023°33'0 0.0
2017-Sep-20 13:00N 37°56' E 023°33'0 0.0
2017-Sep-20 12:30N 37°56' E 023°33'0 0.1
2017-Sep-20 12:00N 37°56' E 023°33'0 0.1
2017-Sep-20 11:30N 37°55' E 023°33'0 0.0
2017-Sep-20 11:00N 37°55' E 023°33'0 0.0
2017-Sep-20 10:30N 37°55' E 023°33'0 0.0
2017-Sep-20 10:00N 37°55' E 023°33'0 0.0
2017-Sep-20 09:30N 37°55' E 023°33'0 0.0
2017-Sep-20 09:00N 37°55' E 023°33'0 0.0
2017-Sep-20 08:30N 37°55' E 023°33'0 0.0
2017-Sep-20 08:00N 37°55' E 023°33'0 0.0
2017-Sep-20 07:30N 37°55' E 023°33'0 0.0
2017-Sep-20 07:00N 37°55' E 023°33'0 0.0
2017-Sep-20 06:30N 37°55' E 023°33'0 0.0
2017-Sep-20 06:00N 37°55' E 023°33'0 0.0
2017-Sep-20 05:30N 37°55' E 023°33'0 0.0
2017-Sep-20 05:00N 37°55' E 023°33'0 0.0
2017-Sep-20 04:30N 37°55' E 023°33'0 0.0
2017-Sep-20 04:00N 37°55' E 023°33'0 0.0
2017-Sep-20 03:30N 37°55' E 023°33'0 0.0
2017-Sep-20 03:00N 37°55' E 023°33'0 0.0
2017-Sep-20 02:30N 37°55' E 023°33'0 0.0
2017-Sep-20 02:00N 37°55' E 023°33'0 0.1
2017-Sep-20 01:30N 37°55' E 023°33'0 0.0
2017-Sep-20 01:00N 37°55' E 023°33'0 0.0
2017-Sep-20 00:31N 37°55' E 023°33'0 0.0
2017-Sep-20 00:00N 37°55' E 023°33'0 0.1
2017-Sep-19 23:30N 37°55' E 023°33'0 0.1
2017-Sep-19 23:00N 37°56' E 023°33'0 0.0
2017-Sep-19 22:30N 37°56' E 023°33'0 0.1
2017-Sep-19 22:00N 37°56' E 023°33'0 0.0
2017-Sep-19 21:30N 37°56' E 023°33'0 0.0
2017-Sep-19 21:01N 37°56' E 023°33'0 0.1
2017-Sep-19 20:30N 37°56' E 023°33'0 0.0
2017-Sep-19 20:00N 37°56' E 023°33'0 0.0
2017-Sep-19 19:30N 37°56' E 023°33'0 0.0
2017-Sep-19 19:00N 37°56' E 023°33'0 0.0
2017-Sep-19 18:30N 37°56' E 023°33'0 0.1
2017-Sep-19 18:00N 37°56' E 023°33'0 0.1
2017-Sep-19 17:30N 37°56' E 023°33'0 0.0
2017-Sep-19 17:00N 37°56' E 023°33'0 0.0
2017-Sep-19 16:30N 37°56' E 023°33'0 0.0
2017-Sep-19 16:00N 37°56' E 023°33'0 0.0
2017-Sep-19 15:30N 37°56' E 023°33'0 0.0
2017-Sep-19 15:00N 37°56' E 023°33'0 0.0
2017-Sep-19 14:30N 37°56' E 023°33'0 0.0
2017-Sep-19 14:00N 37°56' E 023°33'0 0.0
2017-Sep-19 13:30N 37°56' E 023°33'0 0.0
2017-Sep-19 13:00N 37°56' E 023°33'0 0.0
2017-Sep-19 12:30N 37°56' E 023°33'0 0.0
2017-Sep-19 12:00N 37°56' E 023°33'0 0.0
2017-Sep-19 11:30N 37°56' E 023°33'0 0.0
2017-Sep-19 11:00N 37°56' E 023°33'0 0.1
2017-Sep-19 10:30N 37°55' E 023°33'0 0.1
2017-Sep-19 10:00N 37°56' E 023°33'0 0.1
2017-Sep-19 09:30N 37°56' E 023°33'0 0.0
2017-Sep-19 09:00N 37°56' E 023°33'0 0.0
2017-Sep-19 08:30N 37°56' E 023°33'0 0.1
2017-Sep-19 08:00N 37°55' E 023°33'0 0.1
2017-Sep-19 07:30N 37°55' E 023°33'0 0.0
2017-Sep-19 07:00N 37°55' E 023°33'0 0.1
2017-Sep-19 06:31N 37°56' E 023°33'0 0.1
2017-Sep-19 06:01N 37°55' E 023°33'0 0.0
2017-Sep-19 05:30N 37°55' E 023°33'0 0.0
2017-Sep-19 05:00N 37°55' E 023°33'0 0.0
2017-Sep-19 04:30N 37°55' E 023°33'0 0.1
2017-Sep-19 04:00N 37°55' E 023°33'0 0.1
2017-Sep-19 03:30N 37°55' E 023°33'0 0.0
2017-Sep-19 03:00N 37°55' E 023°33'0 0.0
2017-Sep-19 02:30N 37°55' E 023°33'0 0.0
2017-Sep-19 02:00N 37°55' E 023°33'0 0.0
2017-Sep-19 01:30N 37°55' E 023°33'0 0.0
2017-Sep-19 01:00N 37°55' E 023°33'0 0.0
2017-Sep-19 00:30N 37°55' E 023°33'0 0.0
2017-Sep-19 00:00N 37°55' E 023°33'0 0.0
2017-Sep-18 23:30N 37°55' E 023°33'0 0.0
2017-Sep-18 23:00N 37°55' E 023°33'0 0.0
2017-Sep-18 22:30N 37°55' E 023°33'0 0.1
2017-Sep-18 22:00N 37°55' E 023°33'0 0.0
2017-Sep-18 21:30N 37°55' E 023°33'0 0.0
2017-Sep-18 21:00N 37°55' E 023°33'0 0.0
2017-Sep-18 20:30N 37°55' E 023°33'0 0.0
2017-Sep-18 20:00N 37°55' E 023°33'0 0.1
2017-Sep-18 19:30N 37°55' E 023°33'0 0.3
2017-Sep-18 19:00N 37°56' E 023°33'0 0.0
2017-Sep-18 18:30N 37°56' E 023°33'0 0.0
2017-Sep-18 18:00N 37°56' E 023°33'0 0.0
2017-Sep-18 17:30N 37°56' E 023°33'0 0.0
2017-Sep-18 17:00N 37°56' E 023°33'0 0.0
2017-Sep-18 16:30N 37°56' E 023°33'0 0.0
2017-Sep-18 16:00N 37°56' E 023°33'0 0.0
2017-Sep-18 15:30N 37°56' E 023°33'0 0.0
2017-Sep-18 15:00N 37°56' E 023°33'0 0.0
2017-Sep-18 14:30N 37°56' E 023°33'0 0.0
2017-Sep-18 14:00N 37°56' E 023°33'0 0.0
2017-Sep-18 13:30N 37°56' E 023°33'0 0.0
2017-Sep-18 13:00N 37°56' E 023°33'0 0.0
2017-Sep-18 12:30N 37°56' E 023°33'2 3.8
2017-Sep-18 12:00N 37°57' E 023°35'0 1.0
2017-Sep-18 11:30N 37°57' E 023°35'0 0.0
2017-Sep-18 11:00N 37°57' E 023°35'0 0.0
2017-Sep-18 10:30N 37°57' E 023°35'0 0.0
2017-Sep-18 10:00N 37°57' E 023°35'0 0.0
2017-Sep-18 09:30N 37°57' E 023°35'0 0.0
2017-Sep-18 09:00N 37°57' E 023°35'0 0.0
2017-Sep-18 08:30N 37°57' E 023°35'0 0.0
2017-Sep-18 08:00N 37°57' E 023°35'0 0.0
2017-Sep-18 07:31N 37°57' E 023°35'0 0.0
2017-Sep-18 07:00N 37°57' E 023°35'0 0.0
2017-Sep-18 06:31N 37°57' E 023°35'0 0.2
2017-Sep-18 06:00N 37°57' E 023°35'2 4.3
2017-Sep-18 05:30N 37°56' E 023°34'0 0.9
2017-Sep-18 05:00N 37°55' E 023°33'0 0.0
2017-Sep-18 04:30N 37°55' E 023°33'0 0.1
2017-Sep-18 04:00N 37°55' E 023°33'0 0.0
2017-Sep-18 03:30N 37°55' E 023°33'0 0.0
2017-Sep-18 03:00N 37°55' E 023°33'0 0.0
2017-Sep-18 02:30N 37°55' E 023°33'0 0.0
2017-Sep-18 02:00N 37°55' E 023°33'0 0.0
2017-Sep-18 01:30N 37°55' E 023°33'0 0.0
2017-Sep-18 01:00N 37°55' E 023°33'0 0.0
2017-Sep-18 00:30N 37°55' E 023°33'0 0.0
2017-Sep-18 00:00N 37°55' E 023°33'0 0.0
2017-Sep-17 23:30N 37°55' E 023°33'0 0.1
2017-Sep-17 23:00N 37°55' E 023°33'0 0.0
2017-Sep-17 22:30N 37°55' E 023°33'0 0.0
2017-Sep-17 22:00N 37°55' E 023°33'0 0.0
2017-Sep-17 21:30N 37°55' E 023°33'0 0.1
2017-Sep-17 21:00N 37°55' E 023°33'0 0.0
2017-Sep-17 20:30N 37°55' E 023°33'0 0.0
2017-Sep-17 20:00N 37°55' E 023°33'0 0.1
2017-Sep-17 19:30N 37°55' E 023°33'0 0.1
2017-Sep-17 19:00N 37°55' E 023°33'0 0.0
2017-Sep-17 18:30N 37°55' E 023°33'0 0.0
2017-Sep-17 18:00N 37°55' E 023°33'0 0.0
2017-Sep-17 17:31N 37°55' E 023°33'0 0.0
2017-Sep-17 17:00N 37°55' E 023°33'0 0.0
2017-Sep-17 16:30N 37°55' E 023°33'0 0.0
2017-Sep-17 16:00N 37°55' E 023°33'0 0.0
2017-Sep-17 15:30N 37°55' E 023°33'0 0.0
2017-Sep-17 15:00N 37°55' E 023°33'0 0.0
2017-Sep-17 14:30N 37°55' E 023°33'0 0.0
2017-Sep-17 14:00N 37°55' E 023°33'0 0.0
2017-Sep-17 13:31N 37°55' E 023°33'0 0.0
2017-Sep-17 13:00N 37°55' E 023°33'0 0.0
2017-Sep-17 12:30N 37°55' E 023°33'0 0.0
2017-Sep-17 12:00N 37°55' E 023°33'0 0.0
2017-Sep-17 11:30N 37°55' E 023°33'0 0.0
2017-Sep-17 11:00N 37°55' E 023°33'0 0.0
2017-Sep-17 10:30N 37°55' E 023°33'0 0.0
2017-Sep-17 10:00N 37°55' E 023°33'0 0.0
2017-Sep-17 09:30N 37°55' E 023°33'0 0.0
2017-Sep-17 09:00N 37°55' E 023°33'0 0.0
2017-Sep-17 08:30N 37°55' E 023°33'0 0.0
2017-Sep-17 08:00N 37°55' E 023°33'0 0.0
2017-Sep-17 07:30N 37°55' E 023°33'0 0.0
2017-Sep-17 07:00N 37°55' E 023°33'0 0.1
2017-Sep-17 06:30N 37°55' E 023°33'0 0.0
2017-Sep-17 06:00N 37°55' E 023°33'0 0.0
2017-Sep-17 05:30N 37°55' E 023°33'0 0.0
2017-Sep-17 05:00N 37°55' E 023°33'0 0.0
2017-Sep-17 04:30N 37°55' E 023°33'0 0.0
2017-Sep-17 04:00N 37°55' E 023°33'0 0.0
2017-Sep-17 03:30N 37°55' E 023°33'0 0.0
2017-Sep-17 03:00N 37°55' E 023°33'0 0.0
2017-Sep-17 02:30N 37°55' E 023°33'0 0.0
2017-Sep-17 02:00N 37°55' E 023°33'0 0.0
2017-Sep-17 01:30N 37°55' E 023°33'0 0.0
2017-Sep-17 01:00N 37°55' E 023°33'0 0.0
2017-Sep-17 00:31N 37°55' E 023°33'0 0.0
2017-Sep-17 00:00N 37°55' E 023°33'0 0.0
2017-Sep-16 23:30N 37°55' E 023°33'0 0.0
2017-Sep-16 23:00N 37°55' E 023°33'0 0.0
2017-Sep-16 22:30N 37°55' E 023°33'0 0.0
2017-Sep-16 22:00N 37°55' E 023°33'0 0.1
2017-Sep-16 21:30N 37°55' E 023°33'0 0.0
2017-Sep-16 21:00N 37°55' E 023°33'0 0.1
2017-Sep-16 20:30N 37°55' E 023°33'0 0.0
2017-Sep-16 20:00N 37°55' E 023°33'0 0.0
2017-Sep-16 19:30N 37°55' E 023°33'0 0.0
2017-Sep-16 19:00N 37°55' E 023°33'0 0.0
2017-Sep-16 18:30N 37°55' E 023°33'0 0.1
2017-Sep-16 18:00N 37°55' E 023°33'3 6.3
2017-Sep-16 17:30N 37°53' E 023°31'2 3.0
2017-Sep-16 17:00N 37°51' E 023°30'0 0.0
2017-Sep-16 16:30N 37°51' E 023°30'0 0.0
2017-Sep-16 16:00N 37°51' E 023°30'0 0.2
2017-Sep-16 15:30N 37°51' E 023°30'0 0.1
2017-Sep-16 15:00N 37°51' E 023°30'1 1.6
2017-Sep-16 14:30N 37°52' E 023°29'4 7.3
2017-Sep-16 14:00N 37°52' E 023°25'4 7.8
2017-Sep-16 13:30N 37°53' E 023°20'4 7.8
2017-Sep-16 12:58N 37°53' E 023°15'3 7.5
2017-Sep-16 12:30N 37°54' E 023°10'3 0.2
2017-Sep-15 18:36N 37°55' E 023°06'0 0.0
2017-Sep-15 17:31N 37°55' E 023°06'0 0.1
2017-Sep-15 17:29N 37°55' E 023°06'0 0.0
2017-Sep-15 14:27N 37°55' E 023°06'3 0.3
2017-Sep-15 06:24N 37°54' E 023°10'3 7.0
2017-Sep-15 05:58N 37°54' E 023°13'3 6.7
2017-Sep-15 05:30N 37°53' E 023°17'3 7.0
2017-Sep-15 05:00N 37°53' E 023°22'4 7.4
2017-Sep-15 04:30N 37°52' E 023°26'4 7.1
2017-Sep-15 04:00N 37°53' E 023°30'3 6.9
2017-Sep-15 03:30N 37°56' E 023°33'0 0.3
2017-Sep-15 03:00N 37°56' E 023°34'0 0.0
2017-Sep-15 02:30N 37°56' E 023°34'0 0.0
2017-Sep-15 02:00N 37°56' E 023°34'0 0.0
2017-Sep-15 01:30N 37°56' E 023°34'0 0.0
2017-Sep-15 01:01N 37°56' E 023°34'0 0.0
2017-Sep-15 00:30N 37°56' E 023°34'0 0.0
2017-Sep-15 00:00N 37°56' E 023°34'0 0.0
2017-Sep-14 23:30N 37°56' E 023°34'0 0.0
2017-Sep-14 23:00N 37°56' E 023°34'0 0.0
2017-Sep-14 22:30N 37°56' E 023°34'0 0.0
2017-Sep-14 22:00N 37°56' E 023°34'0 0.0
2017-Sep-14 21:30N 37°56' E 023°34'0 0.0
2017-Sep-14 21:00N 37°56' E 023°34'0 0.0
2017-Sep-14 20:30N 37°56' E 023°34'0 0.0
2017-Sep-14 20:00N 37°56' E 023°34'0 0.0
2017-Sep-14 19:31N 37°56' E 023°34'0 0.0
2017-Sep-14 19:01N 37°56' E 023°34'0 0.1
2017-Sep-14 18:30N 37°56' E 023°34'0 0.1
2017-Sep-14 18:00N 37°56' E 023°34'0 0.0
2017-Sep-14 17:30N 37°56' E 023°34'0 0.0
2017-Sep-14 17:00N 37°56' E 023°34'0 0.0
2017-Sep-14 16:30N 37°56' E 023°34'0 0.0
2017-Sep-14 16:00N 37°56' E 023°34'0 0.0
2017-Sep-14 15:30N 37°56' E 023°34'0 0.1
2017-Sep-14 15:00N 37°56' E 023°34'0 0.1
2017-Sep-14 14:30N 37°56' E 023°34'0 0.0
2017-Sep-14 14:00N 37°56' E 023°34'0 0.0
2017-Sep-14 13:30N 37°56' E 023°34'0 0.0
2017-Sep-14 13:00N 37°56' E 023°34'0 0.0
2017-Sep-14 12:30N 37°56' E 023°34'0 0.1
2017-Sep-14 12:00N 37°56' E 023°34'0 0.0
2017-Sep-14 11:30N 37°56' E 023°34'0 0.0
2017-Sep-14 11:01N 37°56' E 023°34'0 0.0
2017-Sep-14 10:30N 37°56' E 023°34'0 0.0
2017-Sep-14 10:00N 37°56' E 023°34'0 0.0
2017-Sep-14 09:30N 37°56' E 023°34'0 0.0
2017-Sep-14 09:01N 37°56' E 023°34'0 0.0
2017-Sep-14 08:30N 37°56' E 023°34'0 0.0
2017-Sep-14 08:00N 37°56' E 023°34'0 0.0
2017-Sep-14 07:31N 37°56' E 023°34'0 0.0
2017-Sep-14 07:00N 37°56' E 023°34'0 0.0
2017-Sep-14 06:30N 37°56' E 023°34'0 0.0
2017-Sep-14 06:00N 37°56' E 023°34'0 0.0
2017-Sep-14 05:30N 37°56' E 023°34'0 0.0
2017-Sep-14 05:00N 37°56' E 023°34'0 0.0
2017-Sep-14 04:31N 37°56' E 023°34'0 0.0
2017-Sep-14 04:00N 37°56' E 023°34'0 0.0
2017-Sep-14 03:31N 37°56' E 023°34'0 0.0
2017-Sep-14 03:01N 37°56' E 023°34'0 0.0
2017-Sep-14 02:30N 37°56' E 023°34'0 0.0
2017-Sep-14 02:00N 37°56' E 023°34'0 0.0
2017-Sep-14 01:31N 37°56' E 023°34'0 0.0
2017-Sep-14 01:00N 37°56' E 023°34'0 0.0
2017-Sep-14 00:30N 37°56' E 023°34'0 0.0
2017-Sep-14 00:00N 37°56' E 023°34'0 0.0
2017-Sep-13 23:30N 37°56' E 023°34'0 0.0
2017-Sep-13 23:00N 37°56' E 023°34'0 0.0
2017-Sep-13 22:30N 37°56' E 023°34'0 0.0
2017-Sep-13 22:00N 37°56' E 023°34'0 0.0
2017-Sep-13 21:30N 37°56' E 023°34'0 0.2
2017-Sep-13 21:00N 37°56' E 023°34'0 0.0
2017-Sep-13 20:30N 37°56' E 023°34'0 0.1
2017-Sep-13 20:00N 37°56' E 023°34'0 0.0
2017-Sep-13 19:30N 37°56' E 023°34'0 0.0
2017-Sep-13 19:00N 37°56' E 023°34'0 0.0
2017-Sep-13 18:30N 37°56' E 023°34'0 0.2
2017-Sep-13 18:00N 37°56' E 023°34'0 0.0
2017-Sep-13 17:30N 37°56' E 023°34'0 0.1
2017-Sep-13 17:00N 37°56' E 023°34'0 0.0
2017-Sep-13 16:30N 37°56' E 023°34'0 0.0
2017-Sep-13 15:59N 37°56' E 023°34'0 0.0
2017-Sep-13 15:30N 37°56' E 023°34'0 0.0
2017-Sep-13 15:01N 37°56' E 023°34'0 0.0
2017-Sep-13 14:30N 37°56' E 023°34'0 0.1
2017-Sep-13 14:01N 37°56' E 023°34'0 0.1
2017-Sep-13 13:30N 37°56' E 023°34'0 0.0
2017-Sep-13 13:00N 37°56' E 023°34'0 0.0
2017-Sep-13 12:31N 37°56' E 023°34'0 0.1
2017-Sep-13 12:00N 37°56' E 023°34'0 0.0
2017-Sep-13 11:30N 37°56' E 023°34'0 0.0
2017-Sep-13 11:01N 37°56' E 023°34'0 0.0
2017-Sep-13 10:31N 37°56' E 023°34'0 0.0
2017-Sep-13 10:00N 37°56' E 023°34'0 0.0
2017-Sep-13 09:30N 37°56' E 023°34'0 0.1
2017-Sep-13 08:59N 37°56' E 023°34'0 0.0
2017-Sep-13 08:30N 37°56' E 023°34'0 0.0
2017-Sep-13 08:00N 37°56' E 023°34'0 0.0
2017-Sep-13 07:30N 37°56' E 023°34'0 0.0
2017-Sep-13 07:00N 37°56' E 023°34'0 0.0
2017-Sep-13 06:30N 37°56' E 023°34'0 0.0
2017-Sep-13 06:00N 37°56' E 023°34'0 0.0
2017-Sep-13 05:30N 37°56' E 023°34'0 0.0
2017-Sep-13 05:01N 37°56' E 023°34'0 0.0
2017-Sep-13 04:31N 37°56' E 023°34'0 0.1
2017-Sep-13 04:01N 37°56' E 023°34'0 0.0
2017-Sep-13 03:30N 37°56' E 023°34'0 0.0
2017-Sep-13 03:00N 37°56' E 023°34'0 0.1
2017-Sep-13 02:30N 37°56' E 023°34'0 0.0
2017-Sep-13 02:00N 37°56' E 023°34'0 0.0
2017-Sep-13 01:30N 37°56' E 023°34'0 0.0
2017-Sep-13 01:00N 37°56' E 023°34'0 0.0
2017-Sep-13 00:30N 37°56' E 023°34'0 0.1
2017-Sep-12 23:59N 37°56' E 023°34'0 0.0
2017-Sep-12 23:30N 37°56' E 023°34'0 0.0
2017-Sep-12 23:00N 37°56' E 023°34'0 0.0
2017-Sep-12 22:30N 37°56' E 023°34'0 0.0
2017-Sep-12 22:01N 37°56' E 023°34'0 0.0
2017-Sep-12 21:30N 37°56' E 023°34'0 0.0
2017-Sep-12 21:00N 37°56' E 023°34'0 0.0
2017-Sep-12 20:30N 37°56' E 023°34'0 0.0
2017-Sep-12 20:00N 37°56' E 023°34'0 0.0
2017-Sep-12 19:30N 37°56' E 023°34'0 0.0
2017-Sep-12 19:00N 37°56' E 023°34'0 0.0
2017-Sep-12 18:30N 37°56' E 023°34'0 0.0
2017-Sep-12 18:00N 37°56' E 023°34'0 0.2
2017-Sep-12 17:30N 37°56' E 023°34'0 0.0
2017-Sep-12 17:00N 37°56' E 023°34'0 0.0
2017-Sep-12 16:30N 37°56' E 023°34'0 0.0
2017-Sep-12 16:00N 37°56' E 023°34'0 0.0
2017-Sep-12 15:30N 37°56' E 023°34'0 0.0
2017-Sep-12 15:00N 37°56' E 023°34'0 0.0
2017-Sep-12 14:30N 37°56' E 023°34'0 0.0
2017-Sep-12 14:00N 37°56' E 023°34'0 0.0
2017-Sep-12 13:30N 37°56' E 023°34'0 0.0
2017-Sep-12 13:00N 37°56' E 023°34'0 0.0
2017-Sep-12 12:30N 37°56' E 023°34'0 0.0
2017-Sep-12 12:00N 37°56' E 023°34'0 0.0
2017-Sep-12 11:30N 37°56' E 023°34'0 0.0
2017-Sep-12 11:00N 37°56' E 023°34'0 0.0
2017-Sep-12 10:30N 37°56' E 023°34'0 0.1
2017-Sep-12 10:00N 37°56' E 023°34'0 0.0
2017-Sep-12 09:30N 37°56' E 023°34'0 0.0
2017-Sep-12 09:00N 37°56' E 023°34'0 0.0
2017-Sep-12 08:30N 37°56' E 023°34'0 0.0
2017-Sep-12 08:00N 37°56' E 023°34'0 0.0
2017-Sep-12 07:30N 37°56' E 023°34'0 0.0
2017-Sep-12 07:00N 37°56' E 023°34'0 0.0
2017-Sep-12 06:30N 37°56' E 023°34'0 0.0
2017-Sep-12 06:00N 37°56' E 023°34'0 0.0
2017-Sep-12 05:30N 37°56' E 023°34'0 0.0
2017-Sep-12 05:00N 37°56' E 023°34'0 0.0
2017-Sep-12 04:30N 37°56' E 023°34'0 0.0
2017-Sep-12 04:00N 37°56' E 023°34'0 0.0
2017-Sep-12 03:30N 37°56' E 023°34'0 0.0
2017-Sep-12 03:00N 37°56' E 023°34'0 0.0
2017-Sep-12 02:30N 37°56' E 023°34'0 0.0
2017-Sep-12 02:00N 37°56' E 023°34'0 0.0
2017-Sep-12 01:30N 37°56' E 023°34'0 0.0
2017-Sep-12 01:00N 37°56' E 023°34'0 0.0
2017-Sep-12 00:30N 37°56' E 023°34'0 0.0
2017-Sep-12 00:00N 37°56' E 023°34'0 0.0
2017-Sep-11 23:31N 37°56' E 023°34'0 0.1
2017-Sep-11 23:00N 37°56' E 023°34'0 0.0
2017-Sep-11 22:30N 37°56' E 023°34'0 0.1
2017-Sep-11 22:00N 37°56' E 023°34'0 0.0
2017-Sep-11 21:30N 37°56' E 023°34'0 0.0
2017-Sep-11 21:00N 37°56' E 023°34'0 0.0
2017-Sep-11 20:30N 37°56' E 023°33'0 0.0
2017-Sep-11 20:00N 37°56' E 023°34'0 0.0
2017-Sep-11 19:30N 37°56' E 023°34'0 0.1
2017-Sep-11 19:00N 37°56' E 023°33'0 0.0
2017-Sep-11 18:30N 37°56' E 023°33'0 0.0
2017-Sep-11 18:00N 37°56' E 023°33'0 0.0
2017-Sep-11 17:30N 37°56' E 023°33'0 0.0
2017-Sep-11 17:00N 37°56' E 023°33'0 0.0
2017-Sep-11 16:30N 37°56' E 023°33'0 0.0
2017-Sep-11 16:00N 37°56' E 023°33'  

Dump ship's entire track history